Time;durP1;ratioP1;P1;durP2;ratioP2;P2;SDS_P1;SDS_P2;PMS_P1;PMS_P2;Temp;Humidity;BMP_temperature;BMP_pressure;BME280_temperature;BME280_humidity;BME280_pressure;Samples;Min_cycle;Max_cycle;Signal;HPM_P1;HPM_P2
2023/10/21 00:01:05;;;;;;;;;;;;;;;11.55;100.00;97705.78;5040376;28;19999;-85
2023/10/21 00:03:30;;;;;;;;;;;;;;;11.57;100.00;97713.53;5043180;28;20019;-84
2023/10/21 00:05:55;;;;;;;;;;;;;;;11.59;100.00;97716.78;5039830;28;19996;-85
2023/10/21 00:08:21;;;;;;;;;;;;;;;11.63;100.00;97724.13;5043367;28;19920;-86
2023/10/21 00:10:46;;;;;;;;;;;;;;;11.66;100.00;97728.22;5042684;28;20384;-87
2023/10/21 00:13:11;;;;;;;;;;;;;;;11.66;100.00;97731.69;5044019;28;19921;-87
2023/10/21 00:15:37;;;;;;;;;;;;;;;11.66;100.00;97734.34;5043564;28;19929;-86
2023/10/21 00:18:02;;;;;;;;;;;;;;;11.65;100.00;97743.25;5046183;28;19944;-87
2023/10/21 00:20:28;;;;;;;;;;;;;;;11.64;100.00;97736.34;5043267;28;20023;-87
2023/10/21 00:22:53;;;;;;;;;;;;;;;11.61;100.00;97744.63;5041192;28;19925;-86
2023/10/21 00:25:18;;;;;;;;;;;;;;;11.60;100.00;97735.09;5045638;28;20296;-86
2023/10/21 00:27:43;;;;;;;;;;;;;;;11.60;100.00;97740.38;5043369;28;20272;-86
2023/10/21 00:30:11;;;;;;;;;;;;;;;11.56;100.00;97746.22;5040575;28;19921;-86
2023/10/21 00:32:37;;;;;;;;;;;;;;;11.49;100.00;97748.81;5042867;28;19997;-86
2023/10/21 00:35:03;;;;;;;;;;;;;;;11.39;100.00;97753.63;5046844;28;19971;-86
2023/10/21 00:37:29;;;;;;;;;;;;;;;11.32;100.00;97758.84;5042388;28;19925;-86
2023/10/21 00:39:55;;;;;;;;;;;;;;;11.31;100.00;97757.22;5045479;28;19925;-86
2023/10/21 00:42:20;;;;;;;;;;;;;;;11.32;100.00;97761.50;5050450;28;20023;-86
2023/10/21 00:44:45;;;;;;;;;;;;;;;11.29;100.00;97763.72;5039509;28;19951;-86
2023/10/21 00:47:11;;;;;;;;;;;;;;;11.30;100.00;97760.06;5040315;28;19928;-85
2023/10/21 00:49:37;;;;;;;;;;;;;;;11.33;100.00;97770.22;5043739;28;19964;-84
2023/10/21 00:52:04;;;;;;;;;;;;;;;11.20;100.00;97775.41;5037178;28;19921;-84
2023/10/21 00:54:29;;;;;;;;;;;;;;;11.02;100.00;97768.75;5042205;28;19921;-84
2023/10/21 00:56:55;;;;;;;;;;;;;;;10.97;100.00;97775.59;5041350;28;20296;-84
2023/10/21 00:59:21;;;;;;;;;;;;;;;10.87;100.00;97769.81;5035711;28;19954;-84
2023/10/21 01:01:47;;;;;;;;;;;;;;;10.76;100.00;97773.78;5040215;28;20062;-84
2023/10/21 01:04:13;;;;;;;;;;;;;;;10.78;100.00;97777.03;5062575;28;19996;-85
2023/10/21 01:06:39;;;;;;;;;;;;;;;10.69;100.00;97788.72;5037506;28;20500;-83
2023/10/21 01:09:04;;;;;;;;;;;;;;;10.69;100.00;97788.72;5039305;28;19968;-86
2023/10/21 01:11:30;;;;;;;;;;;;;;;10.79;100.00;97794.50;5040541;28;20020;-86
2023/10/21 01:13:56;;;;;;;;;;;;;;;10.82;100.00;97788.03;5040967;28;19925;-84
2023/10/21 01:16:21;;;;;;;;;;;;;;;10.77;100.00;97796.50;5043729;28;19967;-86
2023/10/21 01:18:47;;;;;;;;;;;;;;;10.79;100.00;97789.22;5037460;28;19990;-85
2023/10/21 01:21:13;;;;;;;;;;;;;;;10.86;100.00;97784.00;5038916;28;19921;-85
2023/10/21 01:23:39;;;;;;;;;;;;;;;10.90;100.00;97779.97;5041051;28;19943;-85
2023/10/21 01:26:05;;;;;;;;;;;;;;;10.94;100.00;97783.91;5042605;28;19925;-86
2023/10/21 01:28:30;;;;;;;;;;;;;;;10.92;100.00;97784.06;5080682;22;19928;-85
2023/10/21 01:30:56;;;;;;;;;;;;;;;10.93;100.00;97779.63;5043553;28;19939;-85
2023/10/21 01:33:21;;;;;;;;;;;;;;;10.93;100.00;97785.72;5043161;28;20050;-85
2023/10/21 01:35:47;;;;;;;;;;;;;;;10.94;100.00;97792.63;5059531;28;19921;-86
2023/10/21 01:38:12;;;;;;;;;;;;;;;10.95;100.00;97791.63;5042461;28;20120;-85
2023/10/21 01:40:37;;;;;;;;;;;;;;;10.92;100.00;97802.56;5046788;28;19928;-84
2023/10/21 01:43:03;;;;;;;;;;;;;;;10.92;100.00;97794.63;5041140;28;20451;-86
2023/10/21 01:45:28;;;;;;;;;;;;;;;10.80;100.00;97798.78;5059323;28;19990;-85
2023/10/21 01:47:53;;;;;;;;;;;;;;;10.71;100.00;97797.25;5042394;28;19983;-85
2023/10/21 01:50:19;;;;;;;;;;;;;;;10.75;100.00;97803.78;5061273;28;19928;-85
2023/10/21 01:52:45;;;;;;;;;;;;;;;10.70;100.00;97800.91;5059457;28;19921;-85
2023/10/21 01:55:10;;;;;;;;;;;;;;;10.59;100.00;97804.03;5045377;28;19924;-86
2023/10/21 01:57:36;;;;;;;;;;;;;;;10.54;100.00;97801.13;5040932;28;19928;-85
2023/10/21 02:00:08;;;;;;;;;;;;;;;10.47;100.00;97801.03;5058155;28;19921;-85
2023/10/21 02:02:38;;;;;;;;;;;;;;;10.49;100.00;97798.19;5045206;28;20972;-86
2023/10/21 02:05:04;;;;;;;;;;;;;;;10.56;100.00;97814.91;5042046;28;20016;-85
2023/10/21 02:07:31;;;;;;;;;;;;;;;10.64;100.00;97822.75;5043215;28;19921;-85
2023/10/21 02:09:57;;;;;;;;;;;;;;;10.72;100.00;97819.19;5065058;28;19980;-84
2023/10/21 02:12:22;;;;;;;;;;;;;;;10.73;100.00;97821.63;5041284;28;20024;-85
2023/10/21 02:14:48;;;;;;;;;;;;;;;10.75;100.00;97819.63;5046444;28;19924;-83
2023/10/21 02:17:13;;;;;;;;;;;;;;;10.80;100.00;97811.97;5019794;28;19921;-86
2023/10/21 02:19:38;;;;;;;;;;;;;;;10.76;100.00;97820.44;5057161;28;20403;-86
2023/10/21 02:22:04;;;;;;;;;;;;;;;10.72;100.00;97813.91;5043473;28;20406;-85
2023/10/21 02:24:33;;;;;;;;;;;;;;;10.71;100.00;97818.38;5043029;28;20367;-84
2023/10/21 02:26:58;;;;;;;;;;;;;;;10.71;100.00;97823.63;5044680;28;20070;-85
2023/10/21 02:29:23;;;;;;;;;;;;;;;10.70;100.00;97816.72;5045457;28;20424;-87
2023/10/21 02:31:49;;;;;;;;;;;;;;;10.72;100.00;97825.25;5060440;28;20019;-86
2023/10/21 02:34:14;;;;;;;;;;;;;;;10.73;100.00;97831.34;5041171;28;20388;-84
2023/10/21 02:36:40;;;;;;;;;;;;;;;10.71;100.00;97844.75;5039075;28;20006;-86
2023/10/21 02:39:07;;;;;;;;;;;;;;;10.67;100.00;97838.19;5041422;28;19981;-85
2023/10/21 02:41:33;;;;;;;;;;;;;;;10.71;100.00;97844.75;5044452;28;20768;-86
2023/10/21 02:43:58;;;;;;;;;;;;;;;10.77;100.00;97844.00;5042698;28;19994;-85
2023/10/21 02:46:23;;;;;;;;;;;;;;;10.82;100.00;97840.81;5058935;28;20287;-87
2023/10/21 02:48:49;;;;;;;;;;;;;;;10.85;100.00;97840.41;5046078;28;20281;-86
2023/10/21 02:51:15;;;;;;;;;;;;;;;10.91;100.00;97852.88;5040846;28;20010;-87
2023/10/21 02:53:41;;;;;;;;;;;;;;;10.93;100.00;97859.59;5040319;28;19956;-85
2023/10/21 02:56:07;;;;;;;;;;;;;;;10.97;100.00;97857.41;5039847;28;20324;-85
2023/10/21 02:58:34;;;;;;;;;;;;;;;10.99;100.00;97858.88;5044273;28;19920;-85
2023/10/21 03:01:15;;;;;;;;;;;;;;;11.00;100.00;97865.78;5041516;28;19921;-84
2023/10/21 03:03:41;;;;;;;;;;;;;;;11.02;100.00;97868.22;5039311;28;19996;-84
2023/10/21 03:06:08;;;;;;;;;;;;;;;11.01;100.00;97867.44;5041876;28;20448;-84
2023/10/21 03:08:34;;;;;;;;;;;;;;;11.00;100.00;97871.06;5042451;28;20001;-85
2023/10/21 03:11:02;;;;;;;;;;;;;;;11.00;100.00;97881.63;5042490;28;19960;-84
2023/10/21 03:13:27;;;;;;;;;;;;;;;11.05;100.00;97868.69;5041837;28;20361;-86
2023/10/21 03:15:52;;;;;;;;;;;;;;;11.06;100.00;97880.88;5045874;28;19921;-85
2023/10/21 03:18:18;;;;;;;;;;;;;;;11.07;100.00;97881.69;5059487;28;20416;-84
2023/10/21 03:20:43;;;;;;;;;;;;;;;11.02;100.00;97884.88;5034980;28;20758;-85
2023/10/21 03:23:10;;;;;;;;;;;;;;;11.01;100.00;97888.53;5057549;28;19932;-84
2023/10/21 03:25:36;;;;;;;;;;;;;;;11.11;100.00;97887.41;5042107;28;19972;-86
2023/10/21 03:28:01;;;;;;;;;;;;;;;11.15;100.00;97894.75;5043125;28;20368;-86
2023/10/21 03:30:28;;;;;;;;;;;;;;;11.14;100.00;97892.31;5039898;28;19928;-86
2023/10/21 03:32:54;;;;;;;;;;;;;;;11.12;100.00;97895.16;5040174;28;20463;-85
2023/10/21 03:35:19;;;;;;;;;;;;;;;11.15;100.00;97896.59;5038438;28;19994;-86
2023/10/21 03:37:44;;;;;;;;;;;;;;;11.18;100.00;97898.88;5105885;22;19932;-86
2023/10/21 03:40:10;;;;;;;;;;;;;;;11.21;100.00;97898.47;5078716;28;19921;-85
2023/10/21 03:42:37;;;;;;;;;;;;;;;11.28;100.00;97899.38;5051848;28;19920;-85
2023/10/21 03:45:03;;;;;;;;;;;;;;;11.33;100.00;97907.53;5043761;28;19921;-86
2023/10/21 03:47:28;;;;;;;;;;;;;;;11.37;100.00;97908.81;5060509;28;20334;-86
2023/10/21 03:49:53;;;;;;;;;;;;;;;11.37;100.00;97908.81;5060715;28;19971;-86
2023/10/21 03:52:19;;;;;;;;;;;;;;;11.43;100.00;97913.34;5061721;28;19925;-87
2023/10/21 03:54:45;;;;;;;;;;;;;;;11.47;100.00;97914.63;5059643;28;19921;-85
2023/10/21 03:57:10;;;;;;;;;;;;;;;11.50;100.00;97911.59;5062706;28;20258;-85
2023/10/21 03:59:36;;;;;;;;;;;;;;;11.53;100.00;97913.03;5060309;28;20388;-86
2023/10/21 04:02:01;;;;;;;;;;;;;;;11.56;100.00;97924.03;5061417;28;20335;-87
2023/10/21 04:06:52;;;;;;;;;;;;;;;11.58;100.00;97927.31;5057937;28;19929;-75
2023/10/21 04:09:18;;;;;;;;;;;;;;;11.61;100.00;97937.50;5067371;28;19924;-75
2023/10/21 04:11:43;;;;;;;;;;;;;;;11.58;100.00;97934.41;5059854;28;19927;-76
2023/10/21 04:14:10;;;;;;;;;;;;;;;11.60;100.00;97929.78;5066513;28;19927;-76
2023/10/21 04:16:36;;;;;;;;;;;;;;;11.62;100.00;97933.84;5065235;28;20319;-76
2023/10/21 04:19:01;;;;;;;;;;;;;;;11.63;100.00;97937.31;5063714;28;19920;-75
2023/10/21 04:21:27;;;;;;;;;;;;;;;11.58;100.00;97940.53;5064783;28;19924;-74
2023/10/21 04:23:52;;;;;;;;;;;;;;;11.44;100.00;97941.38;5066629;28;19925;-76
2023/10/21 04:26:17;;;;;;;;;;;;;;;11.52;100.00;97951.84;5064399;28;20392;-75
2023/10/21 04:28:43;;;;;;;;;;;;;;;11.57;100.00;97954.72;5067085;28;19928;-76
2023/10/21 04:31:08;;;;;;;;;;;;;;;11.59;100.00;97955.38;5065241;28;19964;-75
2023/10/21 04:33:34;;;;;;;;;;;;;;;11.59;100.00;97955.38;5067027;28;19921;-75
2023/10/21 04:36:00;;;;;;;;;;;;;;;11.53;100.00;97960.59;5067221;28;19928;-74
2023/10/21 04:38:25;;;;;;;;;;;;;;;11.43;100.00;97960.88;5065878;28;19920;-75
2023/10/21 04:40:51;;;;;;;;;;;;;;;11.35;100.00;97961.81;5064973;28;19921;-75
2023/10/21 04:43:16;;;;;;;;;;;;;;;11.41;100.00;97965.53;5067900;28;19942;-76
2023/10/21 04:45:41;;;;;;;;;;;;;;;11.41;100.00;97969.00;5068102;28;19967;-74
2023/10/21 04:48:07;;;;;;;;;;;;;;;11.44;100.00;97967.78;5066647;28;19916;-76
2023/10/21 04:50:32;;;;;;;;;;;;;;;11.45;100.00;97964.16;5065482;28;19920;-75
2023/10/21 04:52:59;;;;;;;;;;;;;;;11.45;100.00;97969.44;5066036;28;19974;-76
2023/10/21 04:55:25;;;;;;;;;;;;;;;11.50;100.00;97961.75;5063964;28;20322;-76
2023/10/21 04:57:51;;;;;;;;;;;;;;;11.51;100.00;97973.97;5068875;28;19924;-75
2023/10/21 05:00:16;;;;;;;;;;;;;;;11.42;100.00;97972.47;5064777;28;19945;-75
2023/10/21 05:02:42;;;;;;;;;;;;;;;11.42;100.00;97978.56;5068425;28;19927;-75
2023/10/21 05:05:07;;;;;;;;;;;;;;;11.45;100.00;97972.06;5063527;28;19943;-75
2023/10/21 05:07:33;;;;;;;;;;;;;;;11.46;100.00;97971.06;5063546;28;20003;-75
2023/10/21 05:09:58;;;;;;;;;;;;;;;11.49;100.00;97979.44;5043516;28;19970;-75
2023/10/21 05:12:23;;;;;;;;;;;;;;;11.50;100.00;97978.44;5062885;28;19928;-77
2023/10/21 05:14:49;;;;;;;;;;;;;;;11.50;100.00;97980.25;5063960;28;20015;-77
2023/10/21 05:17:14;;;;;;;;;;;;;;;11.47;100.00;97970.09;5063674;28;19920;-76
2023/10/21 05:19:40;;;;;;;;;;;;;;;11.49;100.00;97982.06;5064314;28;19920;-76
2023/10/21 05:22:06;;;;;;;;;;;;;;;11.51;100.00;97984.53;5064306;28;19931;-77
2023/10/21 05:24:31;;;;;;;;;;;;;;;11.47;100.00;97993.84;5064019;28;19967;-75
2023/10/21 05:26:57;;;;;;;;;;;;;;;11.48;100.00;98006.06;5063902;28;19929;-75
2023/10/21 05:29:22;;;;;;;;;;;;;;;11.47;100.00;98009.69;5064665;28;20369;-76
2023/10/21 05:31:49;;;;;;;;;;;;;;;11.44;100.00;98015.34;5062589;28;19927;-77
2023/10/21 05:34:18;;;;;;;;;;;;;;;11.41;100.00;98011.25;5064674;28;20550;-76
2023/10/21 05:36:43;;;;;;;;;;;;;;;11.38;100.00;98024.00;5063854;28;19931;-76
2023/10/21 05:39:11;;;;;;;;;;;;;;;11.28;100.00;98031.41;5062691;28;19928;-76
2023/10/21 05:41:37;;;;;;;;;;;;;;;11.22;100.00;98037.41;5063205;28;20287;-77
2023/10/21 05:44:03;;;;;;;;;;;;;;;11.20;100.00;98029.66;5063682;28;20437;-76
2023/10/21 05:46:28;;;;;;;;;;;;;;;11.19;100.00;98043.06;5062391;28;19925;-76
2023/10/21 05:48:54;;;;;;;;;;;;;;;11.10;100.00;98047.63;5064949;28;20007;-75
2023/10/21 05:51:19;;;;;;;;;;;;;;;10.96;100.00;98048.41;5066586;28;19920;-75
2023/10/21 05:53:45;;;;;;;;;;;;;;;10.80;100.00;98049.44;5063592;28;19921;-76
2023/10/21 05:56:12;;;;;;;;;;;;;;;10.82;100.00;98054.53;5067223;28;19924;-76
2023/10/21 05:58:39;;;;;;;;;;;;;;;10.83;100.00;98059.63;5055527;28;19928;-76
2023/10/21 06:01:08;;;;;;;;;;;;;;;10.77;100.00;98065.63;5058588;28;19975;-75
2023/10/21 06:03:34;;;;;;;;;;;;;;;10.78;100.00;98072.53;5062014;28;19925;-74
2023/10/21 06:05:59;;;;;;;;;;;;;;;10.74;100.00;98060.69;5059989;28;19928;-76
2023/10/21 06:08:25;;;;;;;;;;;;;;;10.78;100.00;98072.53;5062268;28;19928;-76
2023/10/21 06:10:51;;;;;;;;;;;;;;;10.86;100.00;98077.72;5061377;28;19962;-76
2023/10/21 06:13:16;;;;;;;;;;;;;;;10.95;100.00;98083.75;5063725;28;19967;-76
2023/10/21 06:15:42;;;;;;;;;;;;;;;11.02;100.00;98090.75;5059206;28;19920;-77
2023/10/21 06:18:07;;;;;;;;;;;;;;;11.05;100.00;98090.41;5065179;28;20430;-76
2023/10/21 06:20:33;;;;;;;;;;;;;;;11.06;100.00;98097.31;5060588;28;20006;-75
2023/10/21 06:22:58;;;;;;;;;;;;;;;11.05;100.00;98100.97;5060472;28;19927;-77
2023/10/21 06:25:26;;;;;;;;;;;;;;;11.04;100.00;98104.59;5061597;28;20005;-75
2023/10/21 06:27:52;;;;;;;;;;;;;;;11.02;100.00;98105.78;5063222;28;20038;-76
2023/10/21 06:30:17;;;;;;;;;;;;;;;11.08;100.00;98116.44;5053408;28;19927;-78
2023/10/21 06:32:43;;;;;;;;;;;;;;;11.20;100.00;98115.97;5065237;28;19966;-76
2023/10/21 06:35:08;;;;;;;;;;;;;;;11.30;100.00;98125.28;5064860;28;19935;-76
2023/10/21 06:37:34;;;;;;;;;;;;;;;11.38;100.00;98127.81;5059467;28;19920;-78
2023/10/21 06:39:59;;;;;;;;;;;;;;;11.45;100.00;98134.03;5063619;28;19920;-77
2023/10/21 06:42:25;;;;;;;;;;;;;;;11.52;100.00;98139.41;5062378;28;19916;-78
2023/10/21 06:44:50;;;;;;;;;;;;;;;11.58;100.00;98143.94;5063482;28;19943;-79
2023/10/21 06:47:18;;;;;;;;;;;;;;;11.64;100.00;98143.22;5062518;28;19928;-78
2023/10/21 06:49:45;;;;;;;;;;;;;;;11.72;100.00;98156.31;5043496;28;19921;-77
2023/10/21 06:52:10;;;;;;;;;;;;;;;11.78;100.00;98152.19;5057629;28;19927;-79
2023/10/21 06:54:36;;;;;;;;;;;;;;;11.83;100.00;98158.53;5061656;28;20304;-76
2023/10/21 06:57:01;;;;;;;;;;;;;;;11.89;100.00;98162.28;5061756;28;19954;-77
2023/10/21 06:59:27;;;;;;;;;;;;;;;11.92;100.00;98163.72;5055354;28;19924;-78
2023/10/21 07:01:52;;;;;;;;;;;;;;;11.99;100.00;98170.72;5059237;28;19920;-78
2023/10/21 07:04:18;;;;;;;;;;;;;;;12.02;100.00;98167.69;5063257;28;20292;-77
2023/10/21 07:06:45;;;;;;;;;;;;;;;12.09;100.00;98173.88;5057438;28;19921;-77
2023/10/21 07:09:11;;;;;;;;;;;;;;;12.13;100.00;98179.66;5062075;28;19920;-78
2023/10/21 07:11:37;;;;;;;;;;;;;;;12.18;100.00;98177.25;5055472;28;20304;-76
2023/10/21 07:14:03;;;;;;;;;;;;;;;12.18;100.00;98175.44;5056748;28;19959;-76
2023/10/21 07:16:29;;;;;;;;;;;;;;;12.20;100.00;98185.81;5058926;28;19924;-76
2023/10/21 07:18:54;;;;;;;;;;;;;;;12.16;100.00;98189.84;5060826;28;19925;-76
2023/10/21 07:21:20;;;;;;;;;;;;;;;12.21;100.00;98192.72;5058657;28;19943;-77
2023/10/21 07:23:45;;;;;;;;;;;;;;;12.24;100.00;98184.44;5061243;28;20300;-75
2023/10/21 07:26:11;;;;;;;;;;;;;;;12.29;100.00;98200.56;5054492;28;19920;-76
2023/10/21 07:28:37;;;;;;;;;;;;;;;12.28;100.00;98205.03;5054043;28;19944;-77
2023/10/21 07:31:03;;;;;;;;;;;;;;;12.34;100.00;98208.75;5055356;28;19920;-76
2023/10/21 07:33:28;;;;;;;;;;;;;;;12.39;100.00;98211.66;5053511;28;19935;-76
2023/10/21 07:35:54;;;;;;;;;;;;;;;12.44;100.00;98214.56;5059548;28;19970;-76
2023/10/21 07:38:20;;;;;;;;;;;;;;;12.47;100.00;98213.38;5062414;28;19920;-77
2023/10/21 07:40:45;;;;;;;;;;;;;;;12.48;100.00;98215.84;5052871;28;19997;-77
2023/10/21 07:43:11;;;;;;;;;;;;;;;12.53;100.00;98213.47;5056382;28;19921;-76
2023/10/21 07:45:38;;;;;;;;;;;;;;;12.60;100.00;98214.34;5052440;28;19925;-76
2023/10/21 07:48:03;;;;;;;;;;;;;;;12.70;100.00;98214.84;5061185;28;19920;-77
2023/10/21 07:50:29;;;;;;;;;;;;;;;12.77;100.00;98220.22;5053943;28;19920;-74
2023/10/21 07:52:54;;;;;;;;;;;;;;;12.77;100.00;98214.09;5056756;28;20048;-77
2023/10/21 07:55:20;;;;;;;;;;;;;;;12.79;100.00;98207.59;5050146;28;19928;-76
2023/10/21 07:57:45;;;;;;;;;;;;;;;12.81;100.00;98204.75;5057838;28;19920;-77
2023/10/21 08:00:13;;;;;;;;;;;;;;;12.82;100.00;98191.34;5049771;28;19920;-76
2023/10/21 08:02:39;;;;;;;;;;;;;;;12.82;100.00;98195.81;5058234;28;19936;-78
2023/10/21 08:05:07;;;;;;;;;;;;;;;12.89;100.00;98202.00;5060599;28;20392;-77
2023/10/21 08:07:32;;;;;;;;;;;;;;;12.93;100.00;98197.94;5053106;28;19948;-77
2023/10/21 08:09:58;;;;;;;;;;;;;;;12.96;100.00;98192.28;5059020;28;19921;-77
2023/10/21 08:12:23;;;;;;;;;;;;;;;13.04;100.00;98200.06;5059343;28;20007;-80
2023/10/21 08:14:49;;;;;;;;;;;;;;;13.08;100.00;98206.63;5058401;28;20329;-76
2023/10/21 08:17:15;;;;;;;;;;;;;;;13.15;100.00;98210.19;5056554;28;19967;-81
2023/10/21 08:19:40;;;;;;;;;;;;;;;13.19;100.00;98219.41;5057214;28;19928;-77
2023/10/21 08:22:06;;;;;;;;;;;;;;;13.26;100.00;98217.59;5056397;28;20020;-77
2023/10/21 08:24:32;;;;;;;;;;;;;;;13.32;100.00;98214.19;5059451;28;19927;-78
2023/10/21 08:26:58;;;;;;;;;;;;;;;13.33;100.00;98215.81;5059926;28;19935;-77
2023/10/21 08:29:23;;;;;;;;;;;;;;;13.43;100.00;98218.94;5057779;28;19948;-77
2023/10/21 08:31:49;;;;;;;;;;;;;;;13.51;100.00;98223.28;5062264;28;19920;-79
2023/10/21 08:34:14;;;;;;;;;;;;;;;13.57;100.00;98227.00;5060278;28;20027;-74
2023/10/21 08:36:40;;;;;;;;;;;;;;;13.61;100.00;98230.91;5052388;28;19928;-79
2023/10/21 08:39:07;;;;;;;;;;;;;;;13.63;100.00;98231.53;5061726;28;20352;-76
2023/10/21 08:41:37;;;;;;;;;;;;;;;13.64;100.00;98243.78;5060422;28;19966;-78
2023/10/21 08:44:02;;;;;;;;;;;;;;;13.65;100.00;98235.63;5052829;28;19921;-76
2023/10/21 08:46:30;;;;;;;;;;;;;;;13.71;100.00;98242.81;5057308;28;20411;-77
2023/10/21 08:48:56;;;;;;;;;;;;;;;13.79;100.00;98231.22;5059941;28;19935;-80
2023/10/21 08:51:22;;;;;;;;;;;;;;;13.87;100.00;98244.31;5060435;28;19921;-77
2023/10/21 08:53:49;;;;;;;;;;;;;;;13.96;100.00;98253.75;5061062;28;20388;-80
2023/10/21 08:56:15;;;;;;;;;;;;;;;14.03;100.00;98262.56;5059285;28;19965;-74
2023/10/21 08:58:41;;;;;;;;;;;;;;;14.10;100.00;98270.56;5064393;28;20283;-76
2023/10/21 09:01:07;;;;;;;;;;;;;;;14.16;100.00;98256.50;5058945;28;19932;-78
2023/10/21 09:03:32;;;;;;;;;;;;;;;14.25;100.00;98264.13;5060389;28;19916;-78
2023/10/21 09:06:19;;;;;;;;;;;;;;;14.28;100.00;98269.03;5063477;28;19928;-77
2023/10/21 09:08:45;;;;;;;;;;;;;;;14.32;100.00;98267.59;5057928;28;19990;-77
2023/10/21 09:11:12;;;;;;;;;;;;;;;14.38;100.00;98273.16;5060315;28;19920;-77
2023/10/21 09:13:38;;;;;;;;;;;;;;;14.42;100.00;98269.13;5058035;28;19924;-77
2023/10/21 09:16:24;;;;;;;;;;;;;;;14.49;100.00;98264.66;5059780;28;19970;-77
2023/10/21 09:18:56;;;;;;;;;;;;;;;14.54;100.00;98262.22;5062923;28;19920;-76
2023/10/21 09:21:31;;;;;;;;;;;;;;;14.60;100.00;98261.44;5059641;28;19924;-78
2023/10/21 09:23:57;;;;;;;;;;;;;;;14.61;100.00;98263.84;5057672;28;20381;-77
2023/10/21 09:26:30;;;;;;;;;;;;;;;14.63;100.00;98258.34;5087093;28;19920;-75
2023/10/21 09:29:03;;;;;;;;;;;;;;;14.64;100.00;98268.78;5056074;28;19925;-75
2023/10/21 09:31:40;;;;;;;;;;;;;;;14.69;100.00;98278.78;5060378;28;20019;-74
2023/10/21 09:34:05;;;;;;;;;;;;;;;14.76;100.00;98277.00;5061730;28;20381;-74
2023/10/21 09:36:38;;;;;;;;;;;;;;;14.80;100.00;98283.53;5057327;28;19928;-74
2023/10/21 09:39:03;;;;;;;;;;;;;;;14.85;100.00;98281.06;5062599;28;19920;-74
2023/10/21 09:41:29;;;;;;;;;;;;;;;14.86;100.00;98276.59;5057681;28;19974;-74
2023/10/21 09:43:56;;;;;;;;;;;;;;;14.88;100.00;98285.19;5058259;28;19935;-76
2023/10/21 09:46:25;;;;;;;;;;;;;;;14.91;100.00;98280.28;5063275;28;19927;-76
2023/10/21 09:48:52;;;;;;;;;;;;;;;14.95;100.00;98286.03;5061543;28;19921;-80
2023/10/21 09:51:17;;;;;;;;;;;;;;;14.95;100.00;98278.88;5054944;28;20364;-79
2023/10/21 09:53:47;;;;;;;;;;;;;;;15.00;100.00;98281.75;5052736;28;19928;-78
2023/10/21 09:56:15;;;;;;;;;;;;;;;15.02;100.00;98271.72;5053775;28;20300;-78
2023/10/21 09:58:41;;;;;;;;;;;;;;;15.10;100.00;98278.69;5063461;28;19930;-78
2023/10/21 10:01:07;;;;;;;;;;;;;;;15.18;100.00;98275.84;5056315;28;20008;-78
2023/10/21 10:03:35;;;;;;;;;;;;;;;15.23;100.00;98272.56;5053433;28;20282;-77
2023/10/21 10:06:06;;;;;;;;;;;;;;;15.34;100.00;98280.75;5054387;28;20361;-78
2023/10/21 10:08:35;;;;;;;;;;;;;;;15.41;100.00;98278.91;5055040;28;19960;-77
2023/10/21 10:11:10;;;;;;;;;;;;;;;15.50;100.00;98276.88;5055283;28;19921;-77
2023/10/21 10:13:42;;;;;;;;;;;;;;;15.57;100.00;98280.38;5053279;28;19921;-78
2023/10/21 10:16:24;;;;;;;;;;;;;;;15.63;100.00;98284.88;5055199;28;19929;-78
2023/10/21 10:18:50;;;;;;;;;;;;;;;15.68;100.00;98287.72;5053865;28;19928;-78
2023/10/21 10:21:17;;;;;;;;;;;;;;;15.73;100.00;98285.25;5054535;28;20343;-79
2023/10/21 10:23:50;;;;;;;;;;;;;;;15.78;100.00;98272.19;5054398;28;20397;-77
2023/10/21 10:26:27;;;;;;;;;;;;;;;15.84;100.00;98278.53;5053476;28;20281;-78
2023/10/21 10:28:52;;;;;;;;;;;;;;;15.85;100.00;98282.78;5052750;28;20423;-80
2023/10/21 10:31:20;;;;;;;;;;;;;;;15.83;100.00;98280.34;5052798;28;19925;-78
2023/10/21 10:33:50;;;;;;;;;;;;;;;15.83;100.00;98280.34;5057572;28;20393;-79
2023/10/21 10:36:25;;;;;;;;;;;;;;;15.88;100.00;98277.06;5055721;28;19920;-78
2023/10/21 10:38:54;;;;;;;;;;;;;;;15.95;100.00;98272.56;5051694;28;19971;-79
2023/10/21 10:41:20;;;;;;;;;;;;;;;16.02;100.00;98265.38;5060645;28;19966;-79
2023/10/21 10:44:01;;;;;;;;;;;;;;;16.07;100.00;98260.25;5051675;28;19924;-77
2023/10/21 10:46:28;;;;;;;;;;;;;;;16.08;100.00;98261.06;5059508;28;19929;-78
2023/10/21 10:48:53;;;;;;;;;;;;;;;16.09;100.00;98258.19;5063183;28;19930;-79
2023/10/21 10:51:21;;;;;;;;;;;;;;;16.15;100.00;98262.66;5060723;28;19927;-77
2023/10/21 10:53:56;;;;;;;;;;;;;;;16.21;100.00;98259.16;5054136;28;20372;-78
2023/10/21 10:56:23;;;;;;;;;;;;;;;16.23;100.00;98254.47;5060487;28;19920;-79
2023/10/21 10:58:48;;;;;;;;;;;;;;;16.34;100.00;98255.66;5060559;28;19960;-80
2023/10/21 11:01:21;;;;;;;;;;;;;;;16.47;100.00;98255.59;5061683;28;19920;-79
2023/10/21 11:03:56;;;;;;;;;;;;;;;16.57;100.00;98255.94;5059181;28;19927;-79
2023/10/21 11:06:23;;;;;;;;;;;;;;;16.67;100.00;98248.34;5062448;28;19921;-79
2023/10/21 11:08:49;;;;;;;;;;;;;;;16.78;100.00;98241.53;5053810;28;19920;-80
2023/10/21 11:11:14;;;;;;;;;;;;;;;16.91;100.00;98245.94;5056017;28;19920;-81
2023/10/21 11:13:41;;;;;;;;;;;;;;;17.01;100.00;98247.13;5065695;28;20013;-85
2023/10/21 11:16:07;;;;;;;;;;;;;;;17.17;100.00;98235.13;5065914;28;19925;-83
2023/10/21 11:18:34;;;;;;;;;;;;;;;17.34;100.00;98225.56;5062396;28;19928;-80
2023/10/21 11:20:59;;;;;;;;;;;;;;;17.45;100.00;98222.16;5061406;28;20015;-80
2023/10/21 11:23:26;;;;;;;;;;;;;;;17.64;100.00;98219.56;5057332;28;20011;-79
2023/10/21 11:25:54;;;;;;;;;;;;;;;17.79;100.00;98214.72;5054836;28;19920;-82
2023/10/21 11:28:20;;;;;;;;;;;;;;;17.86;100.00;98218.09;5054976;28;19920;-81
2023/10/21 11:30:46;;;;;;;;;;;;;;;17.98;100.00;98227.00;5065008;28;19927;-84
2023/10/21 11:33:12;;;;;;;;;;;;;;;18.08;100.00;98227.31;5059178;28;20404;-76
2023/10/21 11:35:39;;;;;;;;;;;;;;;18.12;100.00;98217.81;4356412;28;10000716;-77
2023/10/21 11:38:05;;;;;;;;;;;;;;;17.99;100.00;98228.66;5052468;28;19925;-78
2023/10/21 11:40:32;;;;;;;;;;;;;;;17.93;100.00;98234.88;5055190;28;20456;-75
2023/10/21 11:43:04;;;;;;;;;;;;;;;18.02;100.00;98229.00;5047411;28;20007;-79
2023/10/21 11:45:30;;;;;;;;;;;;;;;18.12;100.00;98227.69;5056796;28;19924;-77
2023/10/21 11:47:56;;;;;;;;;;;;;;;18.16;100.00;98224.34;5054675;28;19924;-76
2023/10/21 11:50:22;;;;;;;;;;;;;;;18.19;100.00;98229.25;5059157;28;19925;-75
2023/10/21 11:52:48;;;;;;;;;;;;;;;18.20;100.00;98225.50;5057783;28;20050;-77
2023/10/21 12:14:32;;;;;;;;;;;;;;;18.32;100.00;98202.38;5053316;28;19925;-76
2023/10/21 12:16:29;;;;;;;;;;;;;;;18.46;100.00;98199.53;5052300;28;19920;-76
2023/10/21 12:22:19;;;;;;;;;;;;;;;18.74;100.00;98199.78;5043750;28;19936;-77
2023/10/21 12:35:32;;;;;;;;;;;;;;;19.40;100.00;98177.34;5061382;28;19921;-78
2023/10/21 12:40:32;;;;;;;;;;;;;;;19.73;100.00;98172.25;5052810;28;20290;-78
2023/10/21 12:45:45;;;;;;;;;;;;;;;20.01;100.00;98176.84;5051385;28;19936;-77
2023/10/21 12:48:13;;;;;;;;;;;;;;;20.11;100.00;98181.59;4708420;28;10000438;-76
2023/10/21 12:50:40;;;;;;;;;;;;;;;20.22;100.00;98180.75;5058199;28;19928;-77
2023/10/21 12:53:06;;;;;;;;;;;;;;;20.35;100.00;98185.88;5058467;28;20292;-78
2023/10/21 12:55:32;;;;;;;;;;;;;;;20.43;100.00;98188.19;5062009;28;20324;-79
2023/10/21 12:57:58;;;;;;;;;;;;;;;20.56;100.00;98201.25;5058241;28;20647;-80
2023/10/21 13:00:25;;;;;;;;;;;;;;;20.64;100.00;98190.16;5055978;28;20396;-78
2023/10/21 13:02:51;;;;;;;;;;;;;;;20.70;100.00;98204.47;5054319;28;20273;-79
2023/10/21 13:05:16;;;;;;;;;;;;;;;20.73;100.00;98199.47;4709350;28;10000379;-76
2023/10/21 13:07:41;;;;;;;;;;;;;;;20.78;100.00;98196.88;5053211;28;19971;-76
2023/10/21 13:10:10;;;;;;;;;;;;;;;20.88;100.00;98200.78;5061113;28;19967;-77
2023/10/21 13:12:39;;;;;;;;;;;;;;;21.01;100.00;98200.47;5054260;28;19959;-78